Time;durP1;ratioP1;P1;durP2;ratioP2;P2;SDS_P1;SDS_P2;PMS_P1;PMS_P2;Temp;Humidity;BMP_temperature;BMP_pressure;BME280_temperature;BME280_humidity;BME280_pressure;Samples;Min_cycle;Max_cycle;Signal;HPM_P1;HPM_P2
2022/05/17 00:00:53;;;;;;;17.30;5.13;;;16.40;99.90;;;;;;5033025;28;20112;-69
2022/05/17 00:03:19;;;;;;;17.15;5.60;;;16.30;99.90;;;;;;5032651;28;20416;-69
2022/05/17 00:05:46;;;;;;;17.92;5.35;;;16.30;99.90;;;;;;5032502;28;20083;-69
2022/05/17 00:08:13;;;;;;;17.58;5.68;;;16.20;99.90;;;;;;5032606;28;20037;-69
2022/05/17 00:10:39;;;;;;;21.33;5.90;;;16.20;99.90;;;;;;5032825;28;20048;-69
2022/05/17 00:13:05;;;;;;;22.52;5.88;;;16.10;99.90;;;;;;5032519;28;20116;-69
2022/05/17 00:15:33;;;;;;;18.85;5.43;;;16.00;99.90;;;;;;5032733;28;20049;-69
2022/05/17 00:18:00;;;;;;;20.02;5.60;;;16.00;99.90;;;;;;5032663;28;20034;-69
2022/05/17 00:20:25;;;;;;;19.60;6.40;;;16.00;99.90;;;;;;5032415;28;20412;-69
2022/05/17 00:22:52;;;;;;;22.13;6.28;;;16.00;99.90;;;;;;5032657;28;20064;-69
2022/05/17 00:25:20;;;;;;;20.95;6.05;;;16.00;99.90;;;;;;5016084;28;20494;-69
2022/05/17 00:27:45;;;;;;;15.95;5.28;;;15.90;99.90;;;;;;5032492;28;20041;-69
2022/05/17 00:30:12;;;;;;;20.10;5.82;;;15.90;99.90;;;;;;5016061;28;20378;-69
2022/05/17 00:32:37;;;;;;;18.52;5.57;;;15.90;99.90;;;;;;5032296;28;20056;-69
2022/05/17 00:35:04;;;;;;;18.98;5.70;;;15.90;99.90;;;;;;5032204;28;20037;-69
2022/05/17 00:37:30;;;;;;;17.63;5.70;;;15.80;99.90;;;;;;5015611;28;20128;-69
2022/05/17 00:39:55;;;;;;;19.15;5.38;;;15.90;99.90;;;;;;5032116;28;20076;-69
2022/05/17 00:42:21;;;;;;;16.83;6.03;;;15.90;99.90;;;;;;5015839;28;20048;-69
2022/05/17 00:44:47;;;;;;;22.35;5.47;;;15.80;99.90;;;;;;5032232;28;20124;-69
2022/05/17 00:47:41;;;;;;;18.33;5.82;;;15.80;99.90;;;;;;5031768;28;20520;-69
2022/05/17 00:50:26;;;;;;;22.25;6.70;;;15.80;99.90;;;;;;5031695;28;20068;-69
2022/05/17 00:52:56;;;;;;;18.15;5.35;;;15.80;99.90;;;;;;5031965;28;20041;-69
2022/05/17 00:55:32;;;;;;;14.73;5.15;;;15.80;99.90;;;;;;5032150;28;20045;-69
2022/05/17 00:58:35;;;;;;;14.88;5.35;;;15.70;99.90;;;;;;5031836;28;20038;-69
2022/05/17 01:01:03;;;;;;;;;;;15.80;99.90;;;;;;5032587;28;20057;-69
2022/05/17 01:03:43;;;;;;;14.98;5.18;;;15.60;99.90;;;;;;5032066;28;19940;-69
2022/05/17 01:06:09;;;;;;;20.80;5.70;;;15.60;99.90;;;;;;5031763;28;20033;-69
2022/05/17 01:08:35;;;;;;;20.00;5.85;;;15.60;99.90;;;;;;5031762;28;20034;-69
2022/05/17 01:11:00;;;;;;;19.92;5.57;;;15.60;99.90;;;;;;5031992;28;20049;-69
2022/05/17 01:16:11;;;;;;;18.05;5.20;;;15.50;99.90;;;;;;5031652;28;20045;-69
2022/05/17 01:18:40;;;;;;;21.55;5.60;;;15.50;99.90;;;;;;5031669;28;20037;-69
2022/05/17 01:21:06;;;;;;;14.05;5.30;;;15.50;99.90;;;;;;5031697;28;20607;-69
2022/05/17 01:23:32;;;;;;;18.00;5.63;;;15.50;99.90;;;;;;5031652;28;20045;-69
2022/05/17 01:25:58;;;;;;;19.90;5.65;;;15.50;99.90;;;;;;5031468;28;20044;-69
2022/05/17 01:28:31;;;;;;;15.95;5.72;;;15.40;99.90;;;;;;5031549;28;20045;-69
2022/05/17 01:31:03;;;;;;;20.05;7.15;;;15.40;99.90;;;;;;5032658;28;20067;-69
2022/05/17 01:33:31;;;;;;;22.38;6.13;;;15.40;99.90;;;;;;5031615;28;20041;-70
2022/05/17 01:35:56;;;;;;;18.65;6.88;;;15.30;99.90;;;;;;5031704;28;20091;-70
2022/05/17 01:38:22;;;;;;;15.07;6.50;;;15.30;99.90;;;;;;5015279;28;20042;-69
2022/05/17 01:40:48;;;;;;;18.95;6.93;;;15.30;99.90;;;;;;5031751;28;20043;-69
2022/05/17 01:43:13;;;;;;;15.60;6.45;;;15.20;99.90;;;;;;5031739;28;20452;-69
2022/05/17 01:45:39;;;;;;;15.02;6.25;;;15.20;99.90;;;;;;5014777;28;20548;-69
2022/05/17 01:48:05;;;;;;;21.40;7.50;;;15.20;99.90;;;;;;5031326;28;20042;-69
2022/05/17 01:50:30;;;;;;;19.08;7.13;;;15.20;99.90;;;;;;5031637;28;20059;-69
2022/05/17 01:52:56;;;;;;;17.02;7.03;;;15.20;99.90;;;;;;5031355;28;20549;-69
2022/05/17 01:55:21;;;;;;;18.65;7.50;;;15.10;99.90;;;;;;5031582;28;20045;-69
2022/05/17 01:57:47;;;;;;;13.82;7.00;;;15.10;99.90;;;;;;5031556;28;20414;-69
2022/05/17 02:00:19;;;;;;;19.75;6.80;;;15.10;99.90;;;;;;5031507;28;20045;-69
2022/05/17 02:02:45;;;;;;;21.58;7.97;;;15.10;99.90;;;;;;5032019;28;20045;-69
2022/05/17 02:05:11;;;;;;;18.77;7.68;;;15.00;99.90;;;;;;5034834;28;20045;-69
2022/05/17 02:07:36;;;;;;;20.58;7.70;;;15.00;99.90;;;;;;5018659;28;20037;-69
2022/05/17 02:10:03;;;;;;;20.75;7.32;;;15.00;99.90;;;;;;5034829;28;20497;-69
2022/05/17 02:12:29;;;;;;;20.90;7.90;;;14.90;99.90;;;;;;5034820;28;20041;-69
2022/05/17 02:14:54;;;;;;;20.90;8.38;;;14.90;99.90;;;;;;5035308;28;20112;-69
2022/05/17 02:17:20;;;;;;;17.42;7.50;;;14.90;99.90;;;;;;5034917;28;20121;-69
2022/05/17 02:19:46;;;;;;;19.73;7.50;;;14.90;99.90;;;;;;5034703;28;20512;-69
2022/05/17 02:22:11;;;;;;;22.52;7.55;;;14.90;99.90;;;;;;5034675;28;20045;-69
2022/05/17 02:24:37;;;;;;;18.75;8.05;;;14.80;99.90;;;;;;5034641;28;20076;-69
2022/05/17 02:27:03;;;;;;;19.02;7.82;;;14.80;99.90;;;;;;5034412;28;20052;-69
2022/05/17 02:29:30;;;;;;;16.35;7.97;;;14.80;99.90;;;;;;5034509;28;20045;-69
2022/05/17 02:31:56;;;;;;;19.55;7.88;;;14.80;99.90;;;;;;5034493;28;20049;-69
2022/05/17 02:34:22;;;;;;;18.75;7.78;;;14.80;99.90;;;;;;5017876;28;20455;-69
2022/05/17 02:36:47;;;;;;;17.83;8.32;;;14.80;99.90;;;;;;5034574;28;20136;-69
2022/05/17 02:39:14;;;;;;;19.73;7.93;;;14.80;99.90;;;;;;5034600;28;20508;-69
2022/05/17 02:41:40;;;;;;;22.63;8.18;;;14.80;99.90;;;;;;5034566;28;20072;-69
2022/05/17 02:44:05;;;;;;;16.83;7.78;;;14.80;99.90;;;;;;5034459;28;20501;-69
2022/05/17 02:46:32;;;;;;;19.15;7.30;;;14.70;99.90;;;;;;5017366;28;20033;-69
2022/05/17 02:48:58;;;;;;;19.73;7.70;;;14.70;99.90;;;;;;5034183;28;20060;-69
2022/05/17 02:51:24;;;;;;;20.88;8.18;;;14.70;99.90;;;;;;5034036;28;20037;-69
2022/05/17 02:53:49;;;;;;;17.80;8.65;;;14.70;99.90;;;;;;5034025;28;20038;-69
2022/05/17 02:56:15;;;;;;;17.63;7.50;;;14.70;99.90;;;;;;5033956;28;20033;-69
2022/05/17 02:58:41;;;;;;;19.10;7.45;;;14.70;99.90;;;;;;5034413;28;20115;-69
2022/05/17 03:01:07;;;;;;;21.90;8.02;;;14.70;99.90;;;;;;5017696;28;20389;-69
2022/05/17 03:03:37;;;;;;;19.98;8.55;;;14.70;99.90;;;;;;5034091;28;20155;-69
2022/05/17 03:06:02;;;;;;;22.15;8.30;;;14.70;99.90;;;;;;5033682;28;20044;-69
2022/05/17 03:08:28;;;;;;;21.80;8.80;;;14.60;99.90;;;;;;5017311;28;20476;-69
2022/05/17 03:10:53;;;;;;;22.80;8.63;;;14.60;99.90;;;;;;5033796;28;20041;-69
2022/05/17 03:13:19;;;;;;;22.33;7.90;;;14.60;99.90;;;;;;5033240;28;20091;-69
2022/05/17 03:15:45;;;;;;;22.30;8.23;;;14.60;99.90;;;;;;5033814;28;20042;-69
2022/05/17 03:18:10;;;;;;;22.75;8.07;;;14.60;99.90;;;;;;5033878;28;20140;-69
2022/05/17 03:20:36;;;;;;;19.73;8.18;;;14.50;99.90;;;;;;5033818;28;20383;-69
2022/05/17 03:23:01;;;;;;;20.63;8.15;;;14.50;99.90;;;;;;5033519;28;20109;-69
2022/05/17 03:25:27;;;;;;;23.13;8.85;;;14.50;99.90;;;;;;5033541;28;20037;-69
2022/05/17 03:27:54;;;;;;;21.02;8.80;;;14.50;99.90;;;;;;5033312;28;20041;-69
2022/05/17 03:30:20;;;;;;;20.20;8.38;;;14.50;99.90;;;;;;5033625;28;20041;-69
2022/05/17 03:32:46;;;;;;;21.40;8.82;;;14.50;99.90;;;;;;5033546;28;20041;-69
2022/05/17 03:35:12;;;;;;;18.50;8.30;;;14.50;99.90;;;;;;5016742;28;20512;-69
2022/05/17 03:37:38;;;;;;;22.70;8.82;;;14.50;99.90;;;;;;5033118;28;20044;-69
2022/05/17 03:40:06;;;;;;;20.13;8.93;;;14.40;99.90;;;;;;5033444;28;20053;-69
2022/05/17 03:42:32;;;;;;;17.65;8.50;;;14.40;99.90;;;;;;5033312;28;20045;-69
2022/05/17 03:44:57;;;;;;;15.80;8.50;;;14.40;99.90;;;;;;5032967;28;20049;-69
2022/05/17 03:47:23;;;;;;;21.55;9.02;;;14.40;99.90;;;;;;5033040;28;20077;-69
2022/05/17 03:49:48;;;;;;;19.30;8.70;;;14.40;99.90;;;;;;5033256;28;20080;-69
2022/05/17 03:52:14;;;;;;;22.17;9.27;;;14.40;99.90;;;;;;5034227;28;20383;-69
2022/05/17 03:54:39;;;;;;;19.98;8.75;;;14.30;99.90;;;;;;5032863;28;20449;-69
2022/05/17 03:57:06;;;;;;;22.02;8.90;;;14.40;99.90;;;;;;5032735;28;20042;-69
2022/05/17 03:59:31;;;;;;;23.13;9.02;;;14.30;99.90;;;;;;5032788;28;20420;-69
2022/05/17 04:01:57;;;;;;;24.70;9.15;;;14.30;99.90;;;;;;5033032;28;20045;-69
2022/05/17 04:04:23;;;;;;;21.98;8.82;;;14.30;99.90;;;;;;5032948;28;20095;-69
2022/05/17 04:06:48;;;;;;;18.75;9.38;;;14.30;99.90;;;;;;5032568;28;20079;-69
2022/05/17 04:09:14;;;;;;;19.27;8.70;;;14.40;99.90;;;;;;5032654;28;20050;-69
2022/05/17 04:11:40;;;;;;;20.25;9.13;;;14.40;99.90;;;;;;5033810;28;20044;-69
2022/05/17 04:14:06;;;;;;;18.60;9.02;;;14.40;99.90;;;;;;5032547;28;20038;-69
2022/05/17 04:16:38;;;;;;;19.48;9.07;;;14.40;99.90;;;;;;5032409;28;20042;-69
2022/05/17 04:19:05;;;;;;;19.90;9.13;;;14.50;99.90;;;;;;5016290;28;20110;-69
2022/05/17 04:21:33;;;;;;;20.92;8.48;;;14.50;99.90;;;;;;5032675;28;20143;-69
2022/05/17 04:23:58;;;;;;;18.65;9.23;;;14.50;99.90;;;;;;5032387;28;20053;-69
2022/05/17 04:26:25;;;;;;;22.42;9.02;;;14.50;99.90;;;;;;5031443;28;20037;-69
2022/05/17 04:28:51;;;;;;;24.13;10.63;;;14.50;99.90;;;;;;5032545;28;20045;-69
2022/05/17 04:31:16;;;;;;;21.52;9.07;;;14.50;99.90;;;;;;5032503;28;20367;-69
2022/05/17 04:33:42;;;;;;;21.95;9.80;;;14.50;99.90;;;;;;5015801;28;20398;-69
2022/05/17 04:36:09;;;;;;;23.33;8.98;;;14.50;99.90;;;;;;5032116;28;20048;-69
2022/05/17 04:38:35;;;;;;;21.90;9.60;;;14.60;99.90;;;;;;5032375;28;20091;-69
2022/05/17 04:41:01;;;;;;;21.20;9.02;;;14.60;99.90;;;;;;5032097;28;20055;-69
2022/05/17 04:43:26;;;;;;;22.50;9.35;;;14.70;99.90;;;;;;5032055;28;20041;-69
2022/05/17 04:45:54;;;;;;;19.13;9.20;;;14.70;99.90;;;;;;5031709;28;20034;-69
2022/05/17 04:48:20;;;;;;;20.40;9.30;;;14.70;99.90;;;;;;5032567;28;20045;-69
2022/05/17 04:50:46;;;;;;;19.85;8.90;;;14.70;99.90;;;;;;5015868;28;20386;-70
2022/05/17 04:53:12;;;;;;;17.67;8.80;;;14.80;99.90;;;;;;5033211;28;20044;-70
2022/05/17 04:55:37;;;;;;;19.75;8.93;;;14.80;99.90;;;;;;5031892;28;20057;-70
2022/05/17 04:58:03;;;;;;;19.48;9.20;;;14.80;99.90;;;;;;5015600;28;20045;-70
2022/05/17 05:00:28;;;;;;;16.70;8.90;;;14.80;99.90;;;;;;5031810;28;20033;-70
2022/05/17 05:02:55;;;;;;;23.17;10.27;;;14.80;99.90;;;;;;5031820;28;20041;-70
2022/05/17 05:05:22;;;;;;;19.00;8.98;;;14.80;99.90;;;;;;5031755;28;20033;-70
2022/05/17 05:07:48;;;;;;;16.98;8.35;;;14.80;99.90;;;;;;5015603;28;20087;-70
2022/05/17 05:10:14;;;;;;;16.30;8.55;;;14.90;99.90;;;;;;5032002;28;20033;-70
2022/05/17 05:12:41;;;;;;;18.75;9.02;;;14.90;99.90;;;;;;5031737;28;20083;-70
2022/05/17 05:15:07;;;;;;;20.88;8.32;;;15.00;99.90;;;;;;5015253;28;20514;-70
2022/05/17 05:17:35;;;;;;;18.88;8.20;;;15.00;99.90;;;;;;5031816;28;20037;-70
2022/05/17 05:20:01;;;;;;;16.95;8.18;;;15.10;99.90;;;;;;5031941;28;20174;-70
2022/05/17 05:22:29;;;;;;;14.65;7.93;;;15.10;99.90;;;;;;5031631;28;20112;-70
2022/05/17 05:24:55;;;;;;;19.83;8.38;;;15.20;99.90;;;;;;5031559;28;20057;-70
2022/05/17 05:27:20;;;;;;;31.40;8.52;;;15.30;99.90;;;;;;5031781;28;20398;-70
2022/05/17 05:29:46;;;;;;;23.42;8.57;;;15.30;99.90;;;;;;5031788;28;20494;-70
2022/05/17 05:32:11;;;;;;;15.00;7.40;;;15.40;99.90;;;;;;5031523;28;20512;-70
2022/05/17 05:34:37;;;;;;;16.58;7.40;;;15.40;99.90;;;;;;5031505;28;20074;-70
2022/05/17 05:37:03;;;;;;;17.38;7.80;;;15.50;99.90;;;;;;5032651;28;20077;-69
2022/05/17 05:39:29;;;;;;;17.58;7.53;;;15.70;99.90;;;;;;5035395;28;20044;-69
2022/05/17 05:41:55;;;;;;;19.85;7.43;;;15.80;99.90;;;;;;5035381;28;20041;-69
2022/05/17 05:44:21;;;;;;;19.08;7.55;;;15.90;99.90;;;;;;5035285;28;20043;-69
2022/05/17 05:46:47;;;;;;;16.70;6.47;;;15.90;99.90;;;;;;5035082;28;20038;-69
2022/05/17 05:49:13;;;;;;;19.33;7.50;;;16.00;99.90;;;;;;5018757;28;20545;-70
2022/05/17 05:51:40;;;;;;;15.05;6.55;;;16.10;99.90;;;;;;5019093;28;20052;-70
2022/05/17 05:54:06;;;;;;;20.40;7.10;;;16.20;99.90;;;;;;5035659;28;20440;-70
2022/05/17 05:56:32;;;;;;;21.65;7.10;;;16.10;99.90;;;;;;5035151;28;20048;-70
2022/05/17 05:58:58;;;;;;;18.45;6.82;;;16.30;99.90;;;;;;5035102;28;20049;-70
2022/05/17 06:01:24;;;;;;;14.27;6.78;;;16.30;99.90;;;;;;5035283;28;20045;-70
2022/05/17 06:03:50;;;;;;;17.77;6.47;;;16.30;99.90;;;;;;5035014;28;20052;-69
2022/05/17 06:06:16;;;;;;;19.63;6.35;;;16.30;99.90;;;;;;5018376;28;20041;-69
2022/05/17 06:08:42;;;;;;;15.57;6.57;;;16.30;99.90;;;;;;5034972;28;20571;-69
2022/05/17 06:11:07;;;;;;;18.65;6.63;;;16.30;99.90;;;;;;5018809;28;20072;-70
2022/05/17 06:13:33;;;;;;;20.67;6.90;;;16.30;99.90;;;;;;5035366;28;20072;-70
2022/05/17 06:15:59;;;;;;;20.75;6.95;;;16.30;99.90;;;;;;5034752;28;20069;-70
2022/05/17 06:18:24;;;;;;;17.63;6.05;;;16.40;99.90;;;;;;5035280;28;20137;-70
2022/05/17 06:20:53;;;;;;;15.55;6.50;;;16.40;99.90;;;;;;5034773;28;20409;-71
2022/05/17 06:23:20;;;;;;;14.65;6.10;;;16.40;99.90;;;;;;5035110;28;20115;-71
2022/05/17 06:25:45;;;;;;;17.00;6.55;;;16.50;99.90;;;;;;5034947;28;20046;-71
2022/05/17 06:28:11;;;;;;;18.02;6.28;;;16.60;99.90;;;;;;5035073;28;20052;-70
2022/05/17 06:30:38;;;;;;;17.25;5.65;;;16.60;99.90;;;;;;5018322;28;20132;-70
2022/05/17 06:33:08;;;;;;;18.85;5.80;;;16.70;99.90;;;;;;5034808;28;20060;-71
2022/05/17 06:35:33;;;;;;;18.45;5.50;;;16.80;99.90;;;;;;5034700;28;20053;-70
2022/05/17 06:37:59;;;;;;;20.13;5.15;;;16.80;99.90;;;;;;5017969;28;20446;-70
2022/05/17 06:40:24;;;;;;;13.88;5.05;;;16.90;99.90;;;;;;5034654;28;20052;-71
2022/05/17 06:42:50;;;;;;;16.08;5.20;;;17.00;99.90;;;;;;5034401;28;20037;-71
2022/05/17 06:45:15;;;;;;;17.25;4.88;;;17.10;99.90;;;;;;5034506;28;20135;-70
2022/05/17 06:47:42;;;;;;;15.30;5.00;;;17.10;99.90;;;;;;5034511;28;20415;-70
2022/05/17 06:50:08;;;;;;;14.40;4.68;;;17.20;99.90;;;;;;5033496;28;20494;-70
2022/05/17 06:52:34;;;;;;;17.33;5.05;;;17.30;99.90;;;;;;5034635;28;20048;-70
2022/05/17 06:55:00;;;;;;;17.52;4.53;;;17.30;99.90;;;;;;5034202;28;20033;-70
2022/05/17 06:57:25;;;;;;;16.30;4.45;;;17.40;99.90;;;;;;5034010;28;20029;-70
2022/05/17 06:59:51;;;;;;;13.38;4.20;;;17.40;99.90;;;;;;5034017;28;20083;-70
2022/05/17 07:02:16;;;;;;;16.55;4.72;;;17.50;99.90;;;;;;5033978;28;20049;-70
2022/05/17 07:04:42;;;;;;;17.10;4.40;;;17.50;99.90;;;;;;5034223;28;20056;-70
2022/05/17 07:07:08;;;;;;;15.50;4.32;;;17.60;99.90;;;;;;5033780;28;20409;-71
2022/05/17 07:09:35;;;;;;;21.52;4.82;;;17.60;99.90;;;;;;5033843;28;20045;-70
2022/05/17 07:14:45;;;;;;;12.05;3.97;;;17.70;99.90;;;;;;5033773;28;20045;-70
2022/05/17 07:17:15;;;;;;;12.10;3.95;;;17.80;99.90;;;;;;5033886;28;20040;-70
2022/05/17 07:19:41;;;;;;;11.35;3.95;;;17.80;99.90;;;;;;5033936;28;20051;-70
2022/05/17 07:22:08;;;;;;;17.42;4.55;;;17.80;99.90;;;;;;5033713;28;20440;-69
2022/05/17 07:24:34;;;;;;;16.35;4.28;;;17.70;99.90;;;;;;5033569;28;20404;-69
2022/05/17 07:27:01;;;;;;;15.07;4.50;;;17.80;99.90;;;;;;5033331;28;20051;-70
2022/05/17 07:29:27;;;;;;;12.48;4.22;;;17.90;99.90;;;;;;5033432;28;20478;-70
2022/05/17 07:31:55;;;;;;;14.07;3.95;;;18.00;99.90;;;;;;5033385;28;20049;-70
2022/05/17 07:34:24;;;;;;;14.68;4.07;;;18.00;99.90;;;;;;5017310;28;20048;-70
2022/05/17 07:36:50;;;;;;;17.90;4.45;;;18.10;99.90;;;;;;5033487;28;20041;-71
2022/05/17 07:39:16;;;;;;;14.43;3.88;;;18.20;99.90;;;;;;5033522;28;20501;-71
2022/05/17 07:41:42;;;;;;;10.13;3.40;;;18.30;99.90;;;;;;5033264;28;20046;-71
2022/05/17 07:44:08;;;;;;;11.27;3.60;;;18.30;99.90;;;;;;5033196;28;20056;-70
2022/05/17 07:46:34;;;;;;;15.77;3.97;;;18.50;99.90;;;;;;5032810;28;20121;-70
2022/05/17 07:49:00;;;;;;;15.10;3.72;;;18.60;99.90;;;;;;5016887;28;20080;-70
2022/05/17 07:51:25;;;;;;;14.50;3.35;;;18.70;99.90;;;;;;5032977;28;20494;-70
2022/05/17 07:53:51;;;;;;;16.70;3.83;;;18.80;99.90;;;;;;5032986;28;20128;-70
2022/05/17 07:56:16;;;;;;;12.30;3.75;;;18.90;99.90;;;;;;5032928;28;20045;-70
2022/05/17 07:58:42;;;;;;;22.05;4.38;;;19.00;99.90;;;;;;5033145;28;20041;-70
2022/05/17 08:01:08;;;;;;;16.67;3.38;;;19.20;99.90;;;;;;5032860;28;20417;-70
2022/05/17 08:03:34;;;;;;;11.02;3.45;;;19.20;99.90;;;;;;5016354;28;20077;-70
2022/05/17 08:06:00;;;;;;;12.65;3.42;;;19.30;99.90;;;;;;5033052;28;20098;-70
2022/05/17 08:08:25;;;;;;;9.48;3.05;;;19.40;99.90;;;;;;5032670;28;20513;-70
2022/05/17 08:10:52;;;;;;;12.75;3.70;;;19.50;99.90;;;;;;5033001;28;20095;-70
2022/05/17 08:13:19;;;;;;;13.07;3.40;;;19.60;99.90;;;;;;5032633;28;20051;-70
2022/05/17 08:15:45;;;;;;;12.77;4.10;;;19.70;99.90;;;;;;5032562;28;20037;-70
2022/05/17 08:18:11;;;;;;;12.55;4.13;;;19.80;99.90;;;;;;5032550;28;20099;-70
2022/05/17 08:20:37;;;;;;;9.80;2.78;;;19.90;99.90;;;;;;5032462;28;20076;-70
2022/05/17 08:23:05;;;;;;;9.20;2.63;;;19.90;99.90;;;;;;5016005;28;20052;-70
2022/05/17 08:28:15;;;;;;;9.05;2.97;;;20.20;99.90;;;;;;5032342;28;20128;-70
2022/05/17 08:30:42;;;;;;;14.57;3.38;;;20.30;99.90;;;;;;5032317;28;20068;-70
2022/05/17 08:33:20;;;;;;;14.30;3.22;;;20.50;99.90;;;;;;5032388;28;20090;-70
2022/05/17 08:35:51;;;;;;;13.68;3.40;;;20.60;99.90;;;;;;5032216;28;20041;-70
2022/05/17 08:38:38;;;;;;;8.38;2.13;;;20.70;99.90;;;;;;5032519;28;20059;-70
2022/05/17 08:41:13;;;;;;;13.40;2.83;;;20.80;99.90;;;;;;5032429;28;20049;-70
2022/05/17 08:43:55;;;;;;;10.85;2.38;;;20.90;99.90;;;;;;5032142;28;20045;-70
2022/05/17 08:46:30;;;;;;;13.47;2.80;;;21.00;99.90;;;;;;5031929;28;20038;-70
2022/05/17 08:49:12;;;;;;;11.15;2.25;;;21.00;99.90;;;;;;5032119;28;20048;-70
2022/05/17 08:51:43;;;;;;;11.38;2.22;;;21.20;99.90;;;;;;5033185;28;20081;-70
2022/05/17 08:54:21;;;;;;;10.15;1.90;;;21.40;99.90;;;;;;5032291;28;20383;-70
2022/05/17 08:56:52;;;;;;;9.80;2.08;;;21.40;99.90;;;;;;5032229;28;20038;-70
2022/05/17 08:59:20;;;;;;;11.13;2.50;;;21.60;99.90;;;;;;5032063;28;20044;-70
2022/05/17 09:01:53;;;;;;;11.98;2.42;;;21.80;99.90;;;;;;5031937;28;20520;-70
2022/05/17 09:04:30;;;;;;;7.30;2.50;;;21.90;99.90;;;;;;5032000;28;20045;-70
2022/05/17 09:07:11;;;;;;;8.80;2.20;;;21.90;99.90;;;;;;5031749;28;20064;-70
2022/05/17 09:09:55;;;;;;;7.57;2.05;;;22.00;99.90;;;;;;5031852;28;20074;-70
2022/05/17 09:12:41;;;;;;;10.48;2.13;;;22.10;99.90;;;;;;5035422;28;20128;-70
2022/05/17 09:15:08;;;;;;;8.82;2.20;;;22.10;99.90;;;;;;5038449;28;20079;-71
2022/05/17 09:17:34;;;;;;;7.47;1.60;;;22.20;99.90;;;;;;5038292;28;20611;-71
2022/05/17 09:20:02;;;;;;;9.70;2.30;;;22.30;99.90;;;;;;5038347;28;20080;-71
2022/05/17 09:22:27;;;;;;;8.48;1.75;;;22.50;99.90;;;;;;5038315;28;20408;-71
2022/05/17 09:25:02;;;;;;;5.80;1.75;;;22.60;99.90;;;;;;5038346;28;20498;-71
2022/05/17 09:27:37;;;;;;;9.90;1.88;;;22.70;99.90;;;;;;5038249;28;20037;-71
2022/05/17 09:30:13;;;;;;;9.13;1.50;;;22.80;99.90;;;;;;5038247;28;20041;-71
2022/05/17 09:32:44;;;;;;;10.18;2.50;;;23.00;97.00;;;;;;5038509;28;20364;-71
2022/05/17 09:35:13;;;;;;;6.85;2.08;;;23.10;90.90;;;;;;5038249;28;20045;-71
2022/05/17 09:37:42;;;;;;;7.57;1.88;;;23.10;93.30;;;;;;5021643;28;20100;-71
2022/05/17 09:40:12;;;;;;;7.55;1.80;;;23.30;91.00;;;;;;5038164;28;20067;-71
2022/05/17 09:42:43;;;;;;;7.57;1.58;;;23.50;93.60;;;;;;5038982;28;20033;-71
2022/05/17 09:45:15;;;;;;;8.70;1.70;;;23.70;87.40;;;;;;5021469;28;20124;-71
2022/05/17 09:47:44;;;;;;;8.82;1.80;;;23.70;88.70;;;;;;5037960;28;20033;-71
2022/05/17 09:53:03;;;;;;;7.20;1.73;;;23.90;80.20;;;;;;5038086;28;20049;-71
2022/05/17 09:55:32;;;;;;;7.88;2.00;;;24.00;81.10;;;;;;5038080;28;20041;-71
2022/05/17 09:58:05;;;;;;;7.75;1.75;;;24.10;78.40;;;;;;5037933;28;20444;-71
2022/05/17 10:00:40;;;;;;;7.35;1.70;;;24.40;80.80;;;;;;5038531;28;20045;-70
2022/05/17 10:03:12;;;;;;;10.70;1.95;;;24.60;70.60;;;;;;5038013;28;20050;-70
2022/05/17 10:05:38;;;;;;;7.60;1.75;;;24.70;66.20;;;;;;5038020;28;20046;-71
2022/05/17 10:08:27;;;;;;;6.03;1.70;;;24.50;65.40;;;;;;5021600;28;20033;-71
2022/05/17 10:11:19;;;;;;;12.15;1.90;;;24.70;62.50;;;;;;5038110;28;20037;-70
2022/05/17 10:14:16;;;;;;;8.20;2.40;;;24.70;62.40;;;;;;5037899;28;20513;-70
2022/05/17 10:16:53;;;;;;;8.23;2.03;;;24.70;63.10;;;;;;5038205;28;20437;-70
2022/05/17 10:19:37;;;;;;;11.40;2.10;;;24.80;67.30;;;;;;5037874;28;20044;-70
2022/05/17 10:22:41;;;;;;;8.60;1.83;;;24.90;66.60;;;;;;5037838;28;20064;-70
2022/05/17 10:25:28;;;;;;;8.15;1.75;;;24.90;65.30;;;;;;5017535;28;20489;-70
2022/05/17 10:27:57;;;;;;;8.98;1.80;;;24.70;68.00;;;;;;5034576;28;20042;-70
2022/05/17 10:30:52;;;;;;;5.72;1.60;;;24.50;65.80;;;;;;5034550;28;20421;-70
2022/05/17 10:33:50;;;;;;;7.75;1.90;;;24.30;66.30;;;;;;5018342;28;20041;-70
2022/05/17 10:36:41;;;;;;;5.97;1.55;;;24.10;68.50;;;;;;5034493;28;20053;-70
2022/05/17 10:39:21;;;;;;;6.07;1.50;;;24.00;65.20;;;;;;5034464;28;20045;-70
2022/05/17 10:41:47;;;;;;;7.05;1.63;;;24.10;65.80;;;;;;5034416;28;20095;-70
2022/05/17 10:44:18;;;;;;;6.55;1.70;;;24.30;66.30;;;;;;5017788;28;20049;-71
2022/05/17 10:46:52;;;;;;;6.90;1.63;;;24.50;65.90;;;;;;5034515;28;20559;-70
2022/05/17 10:49:50;;;;;;;5.40;1.50;;;24.60;62.30;;;;;;5034539;28;20038;-70
2022/05/17 10:52:48;;;;;;;9.85;1.80;;;24.60;64.80;;;;;;5034235;28;20462;-70
2022/05/17 10:55:29;;;;;;;8.27;1.70;;;24.70;63.90;;;;;;5034947;28;20168;-70
2022/05/17 10:58:12;;;;;;;7.60;1.50;;;25.10;62.20;;;;;;5034003;28;20049;-71
2022/05/17 11:00:43;;;;;;;7.40;1.75;;;25.20;60.50;;;;;;5034095;28;20406;-71
2022/05/17 11:03:44;;;;;;;6.85;2.05;;;25.50;59.60;;;;;;5017833;28;20054;-71
2022/05/17 11:06:13;;;;;;;6.00;1.48;;;25.70;60.00;;;;;;5034010;28;20057;-71
2022/05/17 11:09:09;;;;;;;9.02;1.50;;;25.90;56.50;;;;;;5033899;28;20105;-70
2022/05/17 11:12:09;;;;;;;6.65;1.50;;;26.10;56.50;;;;;;5033887;28;20037;-71
2022/05/17 11:14:55;;;;;;;7.50;2.03;;;26.30;54.30;;;;;;5033824;28;20096;-71
2022/05/17 11:17:26;;;;;;;9.30;1.60;;;26.40;52.00;;;;;;5033732;28;20045;-70
2022/05/17 11:20:04;;;;;;;10.68;1.55;;;26.40;51.10;;;;;;5017250;28;20037;-70
2022/05/17 11:22:46;;;;;;;4.88;1.33;;;26.40;49.00;;;;;;5033715;28;20080;-70
2022/05/17 11:25:14;;;;;;;6.97;1.70;;;26.20;49.50;;;;;;5033892;28;20045;-70
2022/05/17 11:28:10;;;;;;;5.80;1.23;;;26.20;50.10;;;;;;5033510;28;20037;-70
2022/05/17 11:30:50;;;;;;;5.70;1.40;;;26.40;50.60;;;;;;5017070;28;20034;-71
2022/05/17 11:33:21;;;;;;;6.57;1.63;;;26.60;50.30;;;;;;5033470;28;20120;-70
2022/05/17 11:35:49;;;;;;;8.30;1.98;;;26.70;52.90;;;;;;5033004;28;20072;-71
2022/05/17 11:38:34;;;;;;;7.05;2.10;;;26.90;53.10;;;;;;5033333;28;20128;-71
2022/05/17 11:41:01;;;;;;;10.07;2.03;;;27.00;55.30;;;;;;5016784;28;20041;-70
2022/05/17 11:43:50;;;;;;;12.55;2.35;;;27.00;55.70;;;;;;5033172;28;20037;-70
2022/05/17 11:46:28;;;;;;;9.25;2.40;;;27.00;54.20;;;;;;5032934;28;20061;-70
2022/05/17 11:49:06;;;;;;;10.85;2.65;;;26.90;56.60;;;;;;5033349;28;20045;-70
2022/05/17 11:51:38;;;;;;;10.30;2.50;;;27.00;54.70;;;;;;5033426;28;20116;-70
2022/05/17 11:54:08;;;;;;;10.68;2.58;;;27.20;56.60;;;;;;5016649;28;20033;-70
2022/05/17 11:56:36;;;;;;;9.55;1.85;;;27.40;56.20;;;;;;5032915;28;20091;-71
2022/05/17 11:59:13;;;;;;;10.07;2.17;;;27.40;55.50;;;;;;5032924;28;20037;-71
2022/05/17 12:01:39;;;;;;;7.15;1.90;;;27.10;55.70;;;;;;5032779;28;20045;-70
2022/05/17 12:04:26;;;;;;;11.20;2.72;;;26.80;55.40;;;;;;5016607;28;20052;-70
2022/05/17 12:06:52;;;;;;;9.38;2.00;;;26.50;56.00;;;;;;5033910;28;20127;-70
2022/05/17 12:09:20;;;;;;;7.72;1.67;;;26.30;55.50;;;;;;5032729;28;20080;-70
2022/05/17 12:11:57;;;;;;;7.55;1.92;;;26.40;57.10;;;;;;5033661;28;20033;-70
2022/05/17 12:14:29;;;;;;;9.80;2.45;;;26.70;57.00;;;;;;5032933;28;20096;-70
2022/05/17 12:16:59;;;;;;;11.10;2.17;;;26.80;57.40;;;;;;5032512;28;20090;-70
2022/05/17 12:19:48;;;;;;;14.68;2.47;;;27.10;56.90;;;;;;5032598;28;20120;-69
2022/05/17 12:22:20;;;;;;;8.45;2.40;;;27.20;57.60;;;;;;5032566;28;20041;-70
2022/05/17 12:24:56;;;;;;;9.43;2.13;;;27.20;57.60;;;;;;5032463;28;20045;-69
2022/05/17 12:27:23;;;;;;;10.43;2.35;;;27.30;58.10;;;;;;5032280;28;20037;-69
2022/05/17 12:32:46;;;;;;;6.57;2.00;;;27.50;53.70;;;;;;5032311;28;20045;-69
2022/05/17 12:35:12;;;;;;;7.28;1.80;;;27.50;56.60;;;;;;5032399;28;20041;-70
2022/05/17 12:37:43;;;;;;;11.25;2.67;;;27.60;57.00;;;;;;5015810;28;20042;-70
2022/05/17 12:43:10;;;;;;;10.23;2.38;;;27.60;56.50;;;;;;5032214;28;20041;-70
2022/05/17 12:45:47;;;;;;;10.85;2.83;;;27.50;56.90;;;;;;5015598;28;20091;-70
2022/05/17 12:48:18;;;;;;;13.48;2.80;;;27.40;57.00;;;;;;5031643;28;20404;-70
2022/05/17 12:50:55;;;;;;;13.38;2.65;;;27.30;58.30;;;;;;5032449;28;20037;-70
2022/05/17 12:53:25;;;;;;;10.68;2.65;;;27.30;60.40;;;;;;5032318;28;20045;-70
2022/05/17 12:56:36;;;;;;;7.82;2.20;;;27.50;60.20;;;;;;5031913;28;20099;-70
2022/05/17 12:59:05;;;;;;;10.43;2.95;;;27.80;60.10;;;;;;5031984;28;20383;-70
2022/05/17 13:01:38;;;;;;;9.52;2.70;;;27.80;57.80;;;;;;5032211;28;20045;-70
2022/05/17 13:04:10;;;;;;;11.45;2.83;;;28.00;56.80;;;;;;5015507;28;20041;-70
2022/05/17 13:06:44;;;;;;;11.13;3.10;;;28.20;57.40;;;;;;5031954;28;20099;-70
2022/05/17 13:09:26;;;;;;;11.02;2.78;;;28.30;55.30;;;;;;5031946;28;20044;-70